createdAt,value
2018-01-23T00:01:27.387Z,6.10
2018-01-23T00:03:54.976Z,6.10
2018-01-23T00:06:22.551Z,6.20
2018-01-23T00:08:50.114Z,6.20
2018-01-23T00:11:17.685Z,6.20
2018-01-23T00:13:45.252Z,6.20
2018-01-23T00:16:12.826Z,6.20
2018-01-23T00:18:40.418Z,6.20
2018-01-23T00:21:07.996Z,6.20
2018-01-23T00:23:35.600Z,6.10
2018-01-23T00:26:03.171Z,6.10
2018-01-23T00:28:31.508Z,6.10
2018-01-23T00:30:59.116Z,6.10
2018-01-23T00:33:27.477Z,6.10
2018-01-23T00:35:55.072Z,6.10
2018-01-23T00:38:23.417Z,6.10
2018-01-23T00:40:50.985Z,6.10
2018-01-23T00:43:18.817Z,6.10
2018-01-23T00:45:47.165Z,6.10
2018-01-23T00:48:14.774Z,6.10
2018-01-23T00:50:43.133Z,6.10
2018-01-23T00:53:10.784Z,6.10
2018-01-23T00:55:38.382Z,6.10
2018-01-23T00:58:05.945Z,6.10
2018-01-23T01:00:33.526Z,6.20
2018-01-23T01:03:01.108Z,6.20
2018-01-23T01:05:28.685Z,6.10
2018-01-23T01:07:56.297Z,6.10
2018-01-23T01:10:23.928Z,6.20
2018-01-23T01:12:52.105Z,6.10
2018-01-23T01:15:19.704Z,6.10
2018-01-23T01:17:48.916Z,6.20
2018-01-23T01:20:17.277Z,6.10
2018-01-23T01:22:44.862Z,6.10
2018-01-23T01:25:12.469Z,6.20
2018-01-23T01:27:40.064Z,6.20
2018-01-23T01:30:07.637Z,6.20
2018-01-23T01:32:35.898Z,6.20
2018-01-23T01:35:04.258Z,6.20
2018-01-23T01:37:31.830Z,6.20
2018-01-23T01:39:59.412Z,6.20
2018-01-23T01:42:27.794Z,6.20
2018-01-23T01:44:55.417Z,6.10
2018-01-23T01:47:23.247Z,6.20
2018-01-23T01:49:50.910Z,6.20
2018-01-23T01:52:18.654Z,6.20
2018-01-23T01:54:46.523Z,6.20
2018-01-23T01:57:14.086Z,6.20
2018-01-23T01:59:41.640Z,6.20
2018-01-23T02:02:10.061Z,6.20
2018-01-23T02:04:37.651Z,6.20
2018-01-23T02:07:05.230Z,6.20
2018-01-23T02:09:32.795Z,6.20
2018-01-23T02:12:00.375Z,6.20
2018-01-23T02:14:27.980Z,6.20
2018-01-23T02:16:56.413Z,6.20
2018-01-23T02:19:23.994Z,6.20
2018-01-23T02:21:51.577Z,6.20
2018-01-23T02:24:19.150Z,6.20
2018-01-23T02:26:46.807Z,6.20
2018-01-23T02:29:14.502Z,6.20
2018-01-23T02:31:42.111Z,6.20
2018-01-23T02:34:10.456Z,6.10
2018-01-23T02:36:38.140Z,6.10
2018-01-23T02:39:05.813Z,6.10
2018-01-23T02:41:33.409Z,6.10
2018-01-23T02:44:01.433Z,6.10
2018-01-23T02:46:29.036Z,6.10
2018-01-23T02:48:56.808Z,6.10
2018-01-23T02:51:24.394Z,6.10
2018-01-23T02:53:52.020Z,6.20
2018-01-23T02:56:20.395Z,6.10
2018-01-23T02:58:47.983Z,6.10
2018-01-23T03:01:15.557Z,6.20
2018-01-23T03:03:43.130Z,6.20
2018-01-23T03:06:10.696Z,6.10
2018-01-23T03:08:38.309Z,6.10
2018-01-23T03:11:05.895Z,6.10
2018-01-23T03:13:33.480Z,6.00
2018-01-23T03:16:01.065Z,6.00
2018-01-23T03:18:28.675Z,6.00
2018-01-23T03:20:56.288Z,6.10
2018-01-23T03:23:23.849Z,6.10
2018-01-23T03:25:51.577Z,6.00
2018-01-23T03:28:19.930Z,6.00
2018-01-23T03:30:47.519Z,6.00
2018-01-23T03:33:15.888Z,6.00
2018-01-23T03:35:43.452Z,6.00
2018-01-23T03:38:11.045Z,6.00
2018-01-23T03:40:38.627Z,6.00
2018-01-23T03:43:06.191Z,6.00
2018-01-23T03:45:33.776Z,5.90
2018-01-23T03:48:01.428Z,5.90
2018-01-23T03:50:28.985Z,5.90
2018-01-23T03:52:56.568Z,5.90
2018-01-23T03:55:24.122Z,6.00
2018-01-23T03:57:52.613Z,5.90
2018-01-23T04:00:20.188Z,5.90
2018-01-23T04:02:47.808Z,5.90
2018-01-23T04:05:16.133Z,5.90
2018-01-23T04:07:44.532Z,5.90
2018-01-23T04:10:12.100Z,5.90
2018-01-23T04:12:39.667Z,5.90
2018-01-23T04:15:07.237Z,5.90
2018-01-23T04:17:34.819Z,5.90
2018-01-23T04:20:02.392Z,6.00
2018-01-23T04:22:30.196Z,5.90
2018-01-23T04:24:57.790Z,5.90
2018-01-23T04:27:25.349Z,5.90
2018-01-23T04:29:52.933Z,5.90
2018-01-23T04:32:20.510Z,5.90
2018-01-23T04:34:48.086Z,5.90
2018-01-23T04:37:16.417Z,5.90
2018-01-23T04:39:43.997Z,5.90
2018-01-23T04:42:11.563Z,5.90
2018-01-23T04:44:39.342Z,5.90
2018-01-23T04:47:07.002Z,5.90
2018-01-23T04:49:34.609Z,5.90
2018-01-23T04:52:02.168Z,5.90
2018-01-23T04:54:29.737Z,5.90
2018-01-23T04:56:57.325Z,5.90
2018-01-23T04:59:24.894Z,5.90
2018-01-23T05:01:52.462Z,5.90
2018-01-23T05:04:20.047Z,5.90
2018-01-23T05:06:47.603Z,5.90
2018-01-23T05:09:15.175Z,5.90
2018-01-23T05:11:42.801Z,5.90
2018-01-23T05:14:11.122Z,5.80
2018-01-23T05:16:38.795Z,5.80
2018-01-23T05:19:06.369Z,5.80
2018-01-23T05:21:33.935Z,5.80
2018-01-23T05:24:01.526Z,5.80
2018-01-23T05:26:29.314Z,5.80
2018-01-23T05:28:56.889Z,5.80
2018-01-23T05:31:24.463Z,5.70
2018-01-23T05:33:52.049Z,5.80
2018-01-23T05:36:20.416Z,5.80
2018-01-23T05:38:48.029Z,5.80
2018-01-23T05:41:15.591Z,5.80
2018-01-23T05:43:43.185Z,5.80
2018-01-23T05:46:10.827Z,5.80
2018-01-23T05:48:38.397Z,5.80
2018-01-23T05:51:06.001Z,5.80
2018-01-23T05:53:33.713Z,5.80
2018-01-23T05:56:01.297Z,5.80
2018-01-23T05:58:28.945Z,5.80
2018-01-23T06:00:56.650Z,5.80
2018-01-23T06:03:24.234Z,5.80
2018-01-23T06:05:52.001Z,5.80
2018-01-23T06:08:19.626Z,5.80
2018-01-23T06:10:47.209Z,5.80
2018-01-23T06:13:14.816Z,5.70
2018-01-23T06:15:42.578Z,5.80
2018-01-23T06:18:10.136Z,5.80
2018-01-23T06:20:38.037Z,5.80
2018-01-23T06:23:05.692Z,5.70
2018-01-23T06:25:34.025Z,5.70
2018-01-23T06:28:01.590Z,5.70
2018-01-23T06:30:29.153Z,5.80
2018-01-23T06:32:56.712Z,5.80
2018-01-23T06:35:24.572Z,5.80
2018-01-23T06:37:52.228Z,5.80
2018-01-23T06:40:19.813Z,5.80
2018-01-23T06:42:47.406Z,5.70
2018-01-23T06:45:14.968Z,5.60
2018-01-23T06:47:42.537Z,5.50
2018-01-23T06:50:10.105Z,5.40
2018-01-23T06:52:37.712Z,5.40
2018-01-23T06:55:05.286Z,5.40
2018-01-23T06:57:32.861Z,5.30
2018-01-23T07:00:00.791Z,5.30
2018-01-23T07:02:28.348Z,5.30
2018-01-23T07:04:56.691Z,5.30
2018-01-23T07:07:24.244Z,5.20
2018-01-23T07:09:51.829Z,5.30
2018-01-23T07:12:19.393Z,5.30
2018-01-23T07:14:47.108Z,5.20
2018-01-23T07:17:14.695Z,5.30
2018-01-23T07:19:43.037Z,5.30
2018-01-23T07:22:10.612Z,5.30
2018-01-23T07:24:38.202Z,5.40
2018-01-23T07:27:05.748Z,5.40
2018-01-23T07:29:33.404Z,5.40
2018-01-23T07:32:01.220Z,5.40
2018-01-23T07:34:28.808Z,5.50
2018-01-23T07:36:56.385Z,5.40
2018-01-23T07:39:23.936Z,5.40
2018-01-23T07:41:51.716Z,5.30
2018-01-23T07:44:20.104Z,5.20
2018-01-23T07:46:48.445Z,5.20
2018-01-23T07:49:16.032Z,5.20
2018-01-23T07:51:43.606Z,5.20
2018-01-23T07:54:11.191Z,5.30
2018-01-23T07:56:38.784Z,5.30
2018-01-23T07:59:06.332Z,5.40
2018-01-23T08:01:33.912Z,5.40
2018-01-23T08:04:01.662Z,5.40
2018-01-23T08:06:29.259Z,5.50
2018-01-23T08:08:56.826Z,5.50
2018-01-23T08:11:24.420Z,5.40
2018-01-23T08:13:52.038Z,5.40
2018-01-23T08:16:20.358Z,5.60
2018-01-23T08:18:48.729Z,5.70
2018-01-23T08:21:16.312Z,5.70
2018-01-23T08:23:43.875Z,5.90
2018-01-23T08:26:11.473Z,6.00
2018-01-23T08:28:39.035Z,6.10
2018-01-23T08:31:06.723Z,6.20
2018-01-23T08:33:34.307Z,6.20
2018-01-23T08:36:01.883Z,6.30
2018-01-23T08:38:29.722Z,6.40
2018-01-23T08:40:57.284Z,6.50
2018-01-23T08:43:24.845Z,6.60
2018-01-23T08:45:53.189Z,6.70
2018-01-23T08:48:20.885Z,6.60
2018-01-23T08:50:49.227Z,6.60
2018-01-23T08:53:16.893Z,6.60
2018-01-23T08:55:44.600Z,6.50
2018-01-23T08:58:12.154Z,6.50
2018-01-23T09:00:39.737Z,6.50
2018-01-23T09:03:07.284Z,6.60
2018-01-23T09:05:34.845Z,6.60
2018-01-23T09:08:02.412Z,6.70
2018-01-23T09:10:30.103Z,6.70
2018-01-23T09:12:57.776Z,6.80
2018-01-23T09:15:25.376Z,6.90
2018-01-23T09:17:52.937Z,7.00
2018-01-23T09:20:20.526Z,7.00
2018-01-23T09:22:48.413Z,7.10
2018-01-23T09:25:15.984Z,7.10
2018-01-23T09:27:43.540Z,7.00
2018-01-23T09:30:11.117Z,7.10
2018-01-23T09:32:38.696Z,7.10
2018-01-23T09:35:06.434Z,7.10
2018-01-23T09:37:34.077Z,7.20
2018-01-23T09:40:02.431Z,7.40
2018-01-23T09:42:30.006Z,7.40
2018-01-23T09:44:57.564Z,7.40
2018-01-23T09:47:25.128Z,7.40
2018-01-23T09:49:52.724Z,7.50
2018-01-23T09:52:20.304Z,7.60
2018-01-23T09:54:47.960Z,7.60
2018-01-23T09:57:15.520Z,7.70
2018-01-23T09:59:43.098Z,7.70
2018-01-23T10:02:10.666Z,7.70
2018-01-23T10:04:38.280Z,7.80
2018-01-23T10:07:06.346Z,7.90
2018-01-23T10:09:33.911Z,8.10
2018-01-23T10:12:01.640Z,8.20
2018-01-23T10:14:29.328Z,8.20
2018-01-23T10:16:56.886Z,8.40
2018-01-23T10:19:24.525Z,8.50
2018-01-23T10:21:52.191Z,8.60
2018-01-23T10:24:19.802Z,8.70
2018-01-23T10:26:47.654Z,8.80
2018-01-23T10:29:15.270Z,8.70
2018-01-23T10:31:42.879Z,8.70
2018-01-23T10:34:10.446Z,8.70
2018-01-23T10:36:38.046Z,8.80
2018-01-23T10:39:05.620Z,8.70
2018-01-23T10:41:33.972Z,8.90
2018-01-23T10:44:01.544Z,8.90
2018-01-23T10:46:29.173Z,9.00
2018-01-23T10:48:56.924Z,9.00
2018-01-23T10:51:24.551Z,9.10
2018-01-23T10:53:52.126Z,9.10
2018-01-23T10:56:19.712Z,9.10
2018-01-23T10:58:47.279Z,9.10
2018-01-23T11:01:14.941Z,9.20
2018-01-23T11:03:42.521Z,9.30
2018-01-23T11:06:10.110Z,9.20
2018-01-23T11:08:37.704Z,9.20
2018-01-23T11:11:05.281Z,9.20
2018-01-23T11:13:33.616Z,9.30
2018-01-23T11:16:01.196Z,9.30
2018-01-23T11:18:28.857Z,9.20
2018-01-23T11:20:56.420Z,9.10
2018-01-23T11:23:24.021Z,9.20
2018-01-23T11:25:51.808Z,9.10
2018-01-23T11:28:19.426Z,9.10
2018-01-23T11:30:49.178Z,9.20
2018-01-23T11:33:16.788Z,9.20
2018-01-23T11:35:44.344Z,9.30
2018-01-23T11:38:11.910Z,9.40
2018-01-23T11:40:39.690Z,9.60
2018-01-23T11:43:07.266Z,9.70
2018-01-23T11:45:34.858Z,10.00
2018-01-23T11:48:02.585Z,10.40
2018-01-23T11:50:30.182Z,10.70
2018-01-23T11:52:57.797Z,10.90
2018-01-23T11:55:26.154Z,11.60
2018-01-23T18:49:23.513Z,5.00
2018-01-23T18:51:51.078Z,4.90
2018-01-23T18:54:18.666Z,4.80
2018-01-23T18:56:46.299Z,4.80
2018-01-23T18:59:14.646Z,4.60
2018-01-23T19:01:42.460Z,4.60
2018-01-23T19:04:10.826Z,4.40
2018-01-23T19:06:38.395Z,4.40
2018-01-23T19:09:06.142Z,4.40
2018-01-23T19:11:33.708Z,4.30
2018-01-23T19:14:01.271Z,4.20
2018-01-23T19:16:28.885Z,4.20
2018-01-23T19:18:56.529Z,4.20
2018-01-23T19:21:24.217Z,4.20
2018-01-23T19:23:51.810Z,4.20
2018-01-23T19:26:19.454Z,4.30
2018-01-23T19:28:47.162Z,4.30
2018-01-23T19:31:15.038Z,4.30
2018-01-23T19:33:42.645Z,4.30
2018-01-23T19:36:10.996Z,4.30
2018-01-23T19:38:38.597Z,4.30
2018-01-23T19:41:06.934Z,4.40
2018-01-23T19:43:34.512Z,4.40
2018-01-23T19:46:03.328Z,4.50
2018-01-23T19:48:31.008Z,4.50
2018-01-23T19:50:58.644Z,4.50
2018-01-23T19:53:26.216Z,4.50
2018-01-23T19:55:55.304Z,4.50
2018-01-23T19:58:23.729Z,4.60
2018-01-23T20:00:51.372Z,4.60
2018-01-23T20:03:19.032Z,4.60
2018-01-23T20:05:46.678Z,4.70
2018-01-23T20:08:14.676Z,4.80
2018-01-23T20:10:42.253Z,4.80
2018-01-23T20:13:09.993Z,4.90
2018-01-23T20:15:37.591Z,5.00
2018-01-23T20:18:07.644Z,5.10
2018-01-23T20:20:36.536Z,5.20
2018-01-23T20:23:06.072Z,5.20
2018-01-23T20:25:33.642Z,5.20
2018-01-23T20:28:03.046Z,5.30
2018-01-23T20:30:30.644Z,5.20
2018-01-23T20:32:58.208Z,5.20
2018-01-23T20:35:26.567Z,5.20
2018-01-23T20:37:54.687Z,5.10
2018-01-23T20:40:22.270Z,5.10
2018-01-23T20:42:49.821Z,5.20
2018-01-23T20:45:17.379Z,5.20
2018-01-23T20:47:45.182Z,5.30
2018-01-23T20:50:13.531Z,5.40
2018-01-23T20:52:41.503Z,5.40
2018-01-23T20:55:09.095Z,5.40
2018-01-23T20:57:36.982Z,5.50
2018-01-23T21:00:04.561Z,5.60
2018-01-23T21:02:33.680Z,5.60
2018-01-23T21:05:01.264Z,5.60
2018-01-23T21:07:28.885Z,5.60
2018-01-23T21:09:56.474Z,5.40
2018-01-23T21:12:24.058Z,5.40
2018-01-23T21:14:52.139Z,5.30
2018-01-23T21:17:19.696Z,5.10
2018-01-23T21:19:47.374Z,5.10
2018-01-23T21:22:14.956Z,5.10
2018-01-23T21:24:42.525Z,5.10
2018-01-23T21:27:10.183Z,5.10
2018-01-23T21:29:37.742Z,5.10
2018-01-23T21:32:05.331Z,5.20
2018-01-23T21:34:32.900Z,5.30
2018-01-23T21:37:00.582Z,5.40
2018-01-23T21:39:28.176Z,5.40
2018-01-23T21:41:56.216Z,5.60
2018-01-23T21:44:23.899Z,5.60
2018-01-23T21:46:51.800Z,5.70
2018-01-23T21:49:19.412Z,5.80
2018-01-23T21:51:47.848Z,5.90
2018-01-23T21:54:15.415Z,5.80
2018-01-23T21:56:43.174Z,5.90
2018-01-23T21:59:10.760Z,5.90
2018-01-23T22:01:39.367Z,6.00
2018-01-23T22:04:06.936Z,6.10
2018-01-23T22:06:34.530Z,6.20
2018-01-23T22:09:02.109Z,6.20
2018-01-23T22:11:29.696Z,6.30
2018-01-23T22:13:58.828Z,6.30
2018-01-23T22:16:26.416Z,6.30
2018-01-23T22:18:54.002Z,6.30
2018-01-23T22:23:34.008Z,6.30
2018-01-23T22:26:01.791Z,6.30
2018-01-23T22:28:29.358Z,6.30
2018-01-23T22:30:57.020Z,6.30
2018-01-23T22:33:24.596Z,6.30
2018-01-23T22:35:52.176Z,6.30
2018-01-23T22:38:20.225Z,6.30
2018-01-23T22:40:47.794Z,6.30
2018-01-23T22:43:15.503Z,6.30
2018-01-23T22:45:43.084Z,6.30
2018-01-23T22:48:10.741Z,6.30
2018-01-23T22:50:38.349Z,6.30
2018-01-23T22:53:05.973Z,6.40
2018-01-23T22:55:36.144Z,6.40
2018-01-23T22:58:03.713Z,6.40
2018-01-23T23:00:31.463Z,6.40
2018-01-23T23:02:59.064Z,6.50
2018-01-23T23:05:26.715Z,6.50
2018-01-23T23:07:54.295Z,6.50
2018-01-23T23:10:22.633Z,6.60
2018-01-23T23:12:50.969Z,6.60
2018-01-23T23:15:18.630Z,6.60
2018-01-23T23:17:46.436Z,6.60
2018-01-23T23:20:14.008Z,6.60
2018-01-23T23:22:41.559Z,6.60
2018-01-23T23:25:09.132Z,6.60
2018-01-23T23:27:36.702Z,6.60
2018-01-23T23:30:04.328Z,6.60
2018-01-23T23:32:32.678Z,6.70
2018-01-23T23:35:00.724Z,6.60
2018-01-23T23:37:29.153Z,6.60
2018-01-23T23:39:56.756Z,6.60
2018-01-23T23:42:24.320Z,6.60
2018-01-23T23:44:51.898Z,6.60
2018-01-23T23:47:19.488Z,6.60
2018-01-23T23:49:47.866Z,6.50
2018-01-23T23:52:16.205Z,6.60
2018-01-23T23:54:43.781Z,6.50
2018-01-23T23:57:11.354Z,6.60
2018-01-23T23:59:38.931Z,6.70
